LOWW/VIE METAR and TAF weather

Enter ICAO airport designator
Station Type Date Time Source
LOWW METAR 2019/12/14 16:50 UTC NOAA

LOWW 141650Z 23008KT 9999 FEW030 06/02 Q1002 NOSIG


Station Type Date Time Source
LOWW Decoded METAR 2019/12/14 16:50 UTC NOAA

Wien / Schwechat-Flughafen, Austria (LOWW) 48-07N 016-34E 190M
Dec 14, 2019 - 11:50 AM EST / 2019.12.14 1650 UTC
Wind: from the SW (230 degrees) at 9 MPH (8 KT):0
Visibility: greater than 7 mile(s):0
Sky conditions: mostly clear
Temperature: 42 F (6 C)
Dew Point: 35 F (2 C)
Relative Humidity: 75%
Pressure (altimeter): 29.59 in. Hg (1002 hPa)
ob: LOWW 141650Z 23008KT 9999 FEW030 06/02 Q1002 NOSIG
cycle: 17

Station Type Date Time Source
LOWW TAF 2019/12/14 18:21 UTC NOAA

TAF LOWW 141715Z 1418/1524 24010KT 9999 FEW030 TX09/1418Z TN02/1524Z
BECMG 1419/1421 18005KT CAVOK

Example: see airport list